Time;durP1;ratioP1;P1;durP2;ratioP2;P2;SDS_P1;SDS_P2;PMS_P1;PMS_P2;Temp;Humidity;BMP_temperature;BMP_pressure;BME280_temperature;BME280_humidity;BME280_pressure;Samples;Min_cycle;Max_cycle;Signal;HPM_P1;HPM_P2
2020/12/08 00:00:25;;;;;;;23.25;17.42;;;0.70;99.90;;;;;;4978695;28;20191;-84
2020/12/08 00:02:52;;;;;;;23.35;17.23;;;0.70;99.90;;;;;;4978172;28;20246;-85
2020/12/08 00:05:19;;;;;;;23.63;16.73;;;0.70;99.90;;;;;;4971634;28;20200;-85
2020/12/08 00:07:46;;;;;;;23.00;15.80;;;0.70;99.90;;;;;;4969725;28;20245;-85
2020/12/08 00:10:12;;;;;;;21.48;18.33;;;0.60;99.90;;;;;;4961915;28;20218;-85
2020/12/08 00:12:39;;;;;;;22.67;17.10;;;0.70;99.90;;;;;;4965396;28;20670;-85
2020/12/08 00:15:06;;;;;;;19.85;16.27;;;0.60;99.90;;;;;;4978210;28;20195;-85
2020/12/08 00:17:33;;;;;;;23.38;16.05;;;0.60;99.90;;;;;;4972641;28;20186;-85
2020/12/08 00:20:01;;;;;;;19.60;14.88;;;0.60;99.90;;;;;;4977814;28;20676;-85
2020/12/08 00:22:27;;;;;;;19.40;16.15;;;0.60;99.90;;;;;;4977075;28;20216;-85
2020/12/08 00:24:53;;;;;;;25.45;15.15;;;0.60;99.90;;;;;;4977786;28;20188;-85
2020/12/08 00:27:21;;;;;;;20.35;14.85;;;0.50;99.90;;;;;;4976542;28;20221;-86
2020/12/08 00:29:48;;;;;;;23.20;16.92;;;0.50;99.90;;;;;;4977743;28;20678;-86
2020/12/08 00:32:14;;;;;;;21.48;15.20;;;0.50;99.90;;;;;;4971019;28;20548;-84
2020/12/08 00:34:40;;;;;;;24.98;18.33;;;0.50;99.90;;;;;;4977341;28;20517;-86
2020/12/08 00:37:07;;;;;;;19.45;15.80;;;0.50;99.90;;;;;;4977609;28;20200;-85
2020/12/08 00:39:34;;;;;;;24.65;17.27;;;0.50;99.90;;;;;;4968401;28;20199;-84
2020/12/08 00:42:06;;;;;;;24.42;17.98;;;0.50;99.90;;;;;;4977619;28;20195;-85
2020/12/08 00:44:32;;;;;;;26.42;19.15;;;0.50;99.90;;;;;;4971028;28;20206;-86
2020/12/08 00:46:59;;;;;;;24.30;18.77;;;0.60;99.90;;;;;;4977990;28;20221;-85
2020/12/08 00:49:26;;;;;;;25.48;18.48;;;0.70;99.90;;;;;;4972696;28;20190;-85
2020/12/08 00:51:56;;;;;;;20.30;17.63;;;0.70;99.90;;;;;;4978515;28;20190;-85
2020/12/08 00:54:22;;;;;;;24.75;19.27;;;0.70;99.90;;;;;;4975002;28;20191;-84
2020/12/08 00:56:48;;;;;;;22.02;16.70;;;0.80;99.90;;;;;;4978056;28;20201;-86
2020/12/08 00:59:14;;;;;;;24.95;17.98;;;0.70;99.90;;;;;;4977070;28;20198;-85
2020/12/08 01:01:41;;;;;;;23.40;17.60;;;0.70;99.90;;;;;;4977258;28;20199;-86
2020/12/08 01:04:08;;;;;;;23.75;19.77;;;0.80;99.90;;;;;;4977126;28;20674;-86
2020/12/08 01:06:36;;;;;;;21.75;18.10;;;0.70;99.90;;;;;;4976502;28;20221;-86
2020/12/08 01:09:02;;;;;;;23.27;20.23;;;0.80;99.90;;;;;;4977734;28;20191;-86
2020/12/08 01:11:28;;;;;;;24.48;18.05;;;0.70;99.90;;;;;;4970669;28;20655;-86
2020/12/08 01:13:55;;;;;;;25.15;16.75;;;0.70;99.90;;;;;;4976730;28;20250;-86
2020/12/08 01:16:24;;;;;;;23.58;17.75;;;0.70;99.90;;;;;;4965052;28;20199;-86
2020/12/08 01:18:51;;;;;;;25.15;18.85;;;0.70;99.90;;;;;;4977496;28;20291;-86
2020/12/08 01:21:18;;;;;;;25.65;19.73;;;0.70;99.90;;;;;;4977187;28;20192;-86
2020/12/08 01:23:44;;;;;;;28.45;19.73;;;0.70;99.90;;;;;;4964042;28;20257;-86
2020/12/08 01:26:11;;;;;;;30.85;20.10;;;0.80;99.90;;;;;;4976761;28;20219;-86
2020/12/08 01:28:37;;;;;;;28.35;20.00;;;0.80;99.90;;;;;;4970382;28;20200;-86
2020/12/08 01:31:03;;;;;;;23.77;18.98;;;0.70;99.90;;;;;;4961680;28;20203;-86
2020/12/08 01:33:29;;;;;;;24.20;17.55;;;0.70;99.90;;;;;;4973375;28;20191;-86
2020/12/08 01:35:55;;;;;;;25.80;19.60;;;0.80;99.90;;;;;;4976866;28;20192;-86
2020/12/08 01:38:23;;;;;;;21.33;16.80;;;0.70;99.90;;;;;;4963055;28;20184;-86
2020/12/08 01:40:53;;;;;;;21.92;17.30;;;0.70;99.90;;;;;;4968340;28;20196;-86
2020/12/08 01:43:19;;;;;;;23.95;18.05;;;0.70;99.90;;;;;;4973284;28;20194;-86
2020/12/08 01:45:45;;;;;;;21.30;18.52;;;0.70;99.90;;;;;;4971604;28;20195;-86
2020/12/08 01:48:12;;;;;;;26.80;20.38;;;0.70;99.90;;;;;;4975421;28;20235;-86
2020/12/08 01:50:38;;;;;;;24.52;19.38;;;0.80;99.90;;;;;;4976350;28;20187;-85
2020/12/08 01:53:04;;;;;;;24.73;17.60;;;0.70;99.90;;;;;;4976040;28;20204;-85
2020/12/08 01:55:34;;;;;;;23.55;18.60;;;0.80;99.90;;;;;;4974063;28;20207;-86
2020/12/08 01:58:00;;;;;;;24.02;19.98;;;0.80;99.90;;;;;;4964993;28;20191;-86
2020/12/08 02:00:26;;;;;;;27.48;19.30;;;0.90;99.90;;;;;;4975686;28;20548;-85
2020/12/08 02:02:52;;;;;;;27.50;18.80;;;0.90;99.90;;;;;;4975840;28;20585;-85
2020/12/08 02:05:19;;;;;;;25.08;19.65;;;0.80;99.90;;;;;;4969357;28;20522;-85
2020/12/08 02:07:45;;;;;;;24.80;18.85;;;0.90;99.90;;;;;;4973630;28;20250;-86
2020/12/08 02:10:11;;;;;;;26.92;19.70;;;0.80;99.90;;;;;;4963082;28;20192;-85
2020/12/08 02:12:38;;;;;;;28.30;18.77;;;0.80;99.90;;;;;;4975240;28;20679;-86
2020/12/08 02:15:05;;;;;;;21.58;16.83;;;0.80;99.90;;;;;;4976043;28;20550;-85
2020/12/08 02:17:31;;;;;;;24.00;17.92;;;0.70;99.90;;;;;;4975245;28;20193;-86
2020/12/08 02:19:58;;;;;;;24.42;17.95;;;0.60;99.90;;;;;;4975565;28;20254;-86
2020/12/08 02:22:25;;;;;;;22.83;18.60;;;0.60;99.90;;;;;;4975790;28;20312;-86
2020/12/08 02:24:51;;;;;;;26.27;19.38;;;0.60;99.90;;;;;;4975597;28;20206;-85
2020/12/08 02:27:17;;;;;;;24.95;18.08;;;0.60;99.90;;;;;;4975679;28;20242;-85
2020/12/08 02:29:43;;;;;;;27.23;20.45;;;0.60;99.90;;;;;;4975299;28;20188;-85
2020/12/08 02:32:09;;;;;;;27.33;19.10;;;0.50;99.90;;;;;;4974989;28;20668;-85
2020/12/08 02:34:36;;;;;;;30.45;20.05;;;0.50;99.90;;;;;;4975111;28;20189;-86
2020/12/08 02:37:03;;;;;;;28.20;23.00;;;0.50;99.90;;;;;;4965235;28;20197;-86
2020/12/08 02:39:29;;;;;;;25.15;18.45;;;0.50;99.90;;;;;;4972408;28;20199;-87
2020/12/08 02:41:55;;;;;;;26.52;18.60;;;0.50;99.90;;;;;;4963948;28;20188;-87
2020/12/08 02:44:21;;;;;;;32.38;22.40;;;0.50;99.90;;;;;;4965984;28;20191;-87
2020/12/08 02:46:51;;;;;;;31.98;20.30;;;0.50;99.90;;;;;;4972428;28;20212;-87
2020/12/08 02:49:18;;;;;;;27.92;21.08;;;0.50;99.90;;;;;;4963245;28;20197;-87
2020/12/08 02:51:45;;;;;;;32.30;21.95;;;0.50;99.90;;;;;;4975452;28;20552;-87
2020/12/08 02:54:12;;;;;;;32.90;21.55;;;0.60;99.90;;;;;;4974614;28;20640;-86
2020/12/08 02:56:38;;;;;;;34.95;21.38;;;0.60;99.90;;;;;;4964020;28;20277;-86
2020/12/08 02:59:04;;;;;;;32.17;22.38;;;0.70;99.90;;;;;;4975064;28;20592;-85
2020/12/08 03:01:31;;;;;;;27.45;21.08;;;0.70;99.90;;;;;;4973715;28;20199;-84
2020/12/08 03:03:57;;;;;;;29.88;21.90;;;0.80;99.90;;;;;;4966030;28;20199;-84
2020/12/08 03:06:23;;;;;;;32.60;24.77;;;0.80;99.90;;;;;;4965153;28;20192;-84
2020/12/08 03:08:49;;;;;;;27.85;22.13;;;0.80;99.90;;;;;;4957166;29;20553;-84
2020/12/08 03:11:16;;;;;;;32.42;23.17;;;0.80;99.90;;;;;;4961343;28;20197;-84
2020/12/08 03:13:43;;;;;;;27.20;21.85;;;0.90;99.90;;;;;;4960569;28;20583;-84
2020/12/08 03:16:09;;;;;;;30.13;20.75;;;0.90;99.90;;;;;;4974876;28;20196;-85
2020/12/08 03:18:35;;;;;;;27.95;20.52;;;0.90;99.90;;;;;;4965604;28;20196;-85
2020/12/08 03:21:01;;;;;;;33.20;20.67;;;0.80;99.90;;;;;;4959774;28;20242;-84
2020/12/08 03:23:27;;;;;;;23.45;18.90;;;0.80;99.90;;;;;;4974717;28;20227;-85
2020/12/08 03:25:53;;;;;;;29.60;18.58;;;0.70;99.90;;;;;;4968396;28;20193;-85
2020/12/08 03:28:20;;;;;;;24.08;18.42;;;0.60;99.90;;;;;;4975070;28;20223;-85
2020/12/08 03:30:47;;;;;;;31.20;24.05;;;0.60;99.90;;;;;;4973631;28;20195;-85
2020/12/08 03:33:13;;;;;;;28.52;20.73;;;0.60;99.90;;;;;;4974859;28;20188;-86
2020/12/08 03:35:40;;;;;;;29.55;22.08;;;0.60;99.90;;;;;;4974061;28;20202;-86
2020/12/08 03:38:07;;;;;;;31.30;23.25;;;0.60;99.90;;;;;;4974507;28;20584;-86
2020/12/08 03:40:33;;;;;;;31.63;24.42;;;0.60;99.90;;;;;;4963236;28;20583;-86
2020/12/08 03:42:59;;;;;;;32.42;24.27;;;0.60;99.90;;;;;;4974923;28;20206;-85
2020/12/08 03:45:26;;;;;;;34.85;22.27;;;0.70;99.90;;;;;;4980835;28;20197;-85
2020/12/08 03:47:52;;;;;;;33.20;23.20;;;0.70;99.90;;;;;;4983990;28;20219;-85
2020/12/08 03:50:18;;;;;;;34.38;21.85;;;0.70;99.90;;;;;;4983753;28;20252;-85
2020/12/08 03:52:45;;;;;;;30.27;23.90;;;0.70;99.90;;;;;;4983790;28;20195;-85
2020/12/08 03:55:11;;;;;;;34.67;22.95;;;0.70;99.90;;;;;;4985503;28;20196;-85
2020/12/08 03:57:37;;;;;;;31.95;21.10;;;0.70;99.90;;;;;;4984372;28;20192;-85
2020/12/08 04:00:06;;;;;;;29.90;22.70;;;0.70;99.90;;;;;;4974138;28;20197;-85
2020/12/08 04:02:33;;;;;;;33.15;23.90;;;0.70;99.90;;;;;;4969866;28;20190;-86
2020/12/08 04:04:59;;;;;;;34.17;22.75;;;0.70;99.90;;;;;;4982069;28;20188;-86
2020/12/08 04:07:25;;;;;;;27.65;22.50;;;0.70;99.90;;;;;;4981146;28;20219;-86
2020/12/08 04:09:51;;;;;;;29.90;22.70;;;0.70;99.90;;;;;;4980334;28;20214;-86
2020/12/08 04:12:18;;;;;;;34.15;25.63;;;0.70;99.90;;;;;;4969439;28;20198;-86
2020/12/08 04:14:44;;;;;;;37.17;24.60;;;0.80;99.90;;;;;;4975592;28;20191;-85
2020/12/08 04:17:11;;;;;;;36.30;25.48;;;0.90;99.90;;;;;;4968680;28;20546;-84
2020/12/08 04:19:38;;;;;;;37.65;25.50;;;0.90;99.90;;;;;;4975290;28;20200;-85
2020/12/08 04:22:04;;;;;;;33.47;23.30;;;0.90;99.90;;;;;;4974776;28;20230;-84
2020/12/08 04:24:30;;;;;;;32.92;24.65;;;1.10;99.90;;;;;;4974535;28;20196;-85
2020/12/08 04:26:56;;;;;;;39.28;26.60;;;1.10;99.90;;;;;;4975035;28;20219;-84
2020/12/08 04:29:23;;;;;;;36.40;24.25;;;1.10;99.90;;;;;;4967319;28;20200;-84
2020/12/08 04:31:51;;;;;;;38.35;26.13;;;1.20;99.90;;;;;;4973974;28;20252;-84
2020/12/08 04:34:17;;;;;;;36.35;27.10;;;1.30;99.90;;;;;;4971369;28;20527;-84
2020/12/08 04:36:44;;;;;;;31.67;23.48;;;1.40;99.90;;;;;;4974291;28;20581;-84
2020/12/08 04:39:10;;;;;;;34.60;26.23;;;1.40;99.90;;;;;;4960693;28;20598;-84
2020/12/08 04:41:36;;;;;;;35.17;24.60;;;1.50;99.90;;;;;;4976883;28;20183;-84
2020/12/08 04:44:04;;;;;;;36.08;25.30;;;1.50;99.90;;;;;;4976919;28;20194;-84
2020/12/08 04:46:31;;;;;;;34.85;26.70;;;1.60;99.90;;;;;;4975216;28;20213;-84
2020/12/08 04:48:58;;;;;;;36.10;24.90;;;1.60;99.90;;;;;;4958369;29;20203;-84
2020/12/08 04:51:24;;;;;;;37.28;27.35;;;1.70;99.90;;;;;;4970337;28;20189;-84
2020/12/08 04:53:53;;;;;;;37.50;26.20;;;1.80;99.90;;;;;;4977346;28;20212;-84
2020/12/08 04:56:20;;;;;;;37.17;25.65;;;1.80;99.90;;;;;;4968873;28;20188;-84
2020/12/08 04:58:46;;;;;;;29.98;23.70;;;1.90;99.90;;;;;;4975725;28;20216;-84
2020/12/08 05:01:24;;;;;;;34.60;23.98;;;1.90;99.90;;;;;;4961262;28;20590;-84
2020/12/08 05:03:57;;;;;;;29.85;25.13;;;2.00;99.90;;;;;;4971668;28;20221;-84
2020/12/08 05:06:23;;;;;;;31.17;23.30;;;1.90;99.90;;;;;;4976415;28;20347;-83
2020/12/08 05:09:01;;;;;;;34.90;26.25;;;2.00;99.90;;;;;;4976744;28;20221;-83
2020/12/08 05:11:28;;;;;;;35.08;26.00;;;2.00;99.90;;;;;;4977243;28;20209;-84
2020/12/08 05:13:58;;;;;;;36.33;25.55;;;2.00;99.90;;;;;;4976902;28;20201;-84
2020/12/08 05:16:24;;;;;;;35.13;25.33;;;2.10;99.90;;;;;;4962589;28;20193;-84
2020/12/08 05:18:50;;;;;;;33.13;25.05;;;2.10;99.90;;;;;;4978317;28;20197;-84
2020/12/08 05:21:16;;;;;;;32.00;24.33;;;2.10;99.90;;;;;;4976156;28;20218;-83
2020/12/08 05:23:44;;;;;;;35.72;25.00;;;2.10;99.90;;;;;;4961844;28;20220;-85
2020/12/08 05:26:12;;;;;;;33.35;24.98;;;2.10;99.90;;;;;;4977061;28;20226;-83
2020/12/08 05:28:39;;;;;;;36.38;25.05;;;2.20;99.90;;;;;;4976275;28;20233;-84
2020/12/08 05:31:06;;;;;;;28.88;23.05;;;2.20;99.90;;;;;;4977006;28;20550;-84
2020/12/08 05:33:32;;;;;;;34.83;26.13;;;2.30;99.90;;;;;;4975708;28;20203;-84
2020/12/08 05:36:00;;;;;;;33.65;22.85;;;2.30;99.90;;;;;;4976584;28;20193;-84
2020/12/08 05:38:33;;;;;;;31.48;24.40;;;2.30;99.90;;;;;;4965595;28;20194;-84
2020/12/08 05:41:02;;;;;;;34.78;24.33;;;2.40;99.90;;;;;;4976278;28;20273;-84
2020/12/08 05:43:35;;;;;;;33.60;24.90;;;2.40;99.90;;;;;;4976404;28;20201;-85
2020/12/08 05:46:03;;;;;;;31.15;21.73;;;2.40;99.90;;;;;;4965724;28;20187;-85
2020/12/08 05:48:31;;;;;;;34.25;24.40;;;2.40;99.90;;;;;;4971687;28;20267;-84
2020/12/08 05:50:59;;;;;;;28.55;23.75;;;2.50;99.90;;;;;;4976276;28;20198;-84
2020/12/08 05:53:25;;;;;;;34.05;24.42;;;2.50;99.90;;;;;;4975015;28;20201;-84
2020/12/08 05:56:02;;;;;;;32.97;23.20;;;2.50;99.90;;;;;;4971711;28;20193;-84
2020/12/08 05:58:28;;;;;;;33.17;24.40;;;2.50;99.90;;;;;;4976554;28;20203;-83
2020/12/08 06:01:02;;;;;;;26.77;20.35;;;2.50;99.90;;;;;;4963141;28;20194;-90
2020/12/08 06:03:28;;;;;;;30.00;24.13;;;2.50;99.90;;;;;;4970895;28;20636;-90
2020/12/08 06:06:08;;;;;;;28.98;21.55;;;2.60;99.90;;;;;;4978876;28;20198;-90
2020/12/08 06:08:44;;;;;;;28.13;21.05;;;2.60;99.90;;;;;;4979212;28;20308;-90
2020/12/08 06:11:10;;;;;;;32.42;21.90;;;2.50;99.90;;;;;;4981875;28;20201;-92
2020/12/08 06:13:41;;;;;;;34.10;24.42;;;2.50;99.90;;;;;;4984122;28;20199;-92
2020/12/08 06:16:21;;;;;;;32.22;22.00;;;2.60;99.90;;;;;;4984377;28;20209;-90
2020/12/08 06:18:48;;;;;;;30.20;22.10;;;2.60;99.90;;;;;;4997545;28;20197;-92
2020/12/08 06:21:20;;;;;;;28.42;22.30;;;2.60;99.90;;;;;;4982478;28;20697;-90
2020/12/08 06:23:47;;;;;;;28.05;21.70;;;2.60;99.90;;;;;;4978965;28;20258;-91
2020/12/08 06:26:21;;;;;;;26.17;19.77;;;2.60;99.90;;;;;;4978671;28;20594;-93
2020/12/08 06:28:48;;;;;;;27.20;20.73;;;2.70;99.90;;;;;;4979678;28;20220;-93
2020/12/08 06:31:14;;;;;;;29.02;22.48;;;2.60;99.90;;;;;;4979058;28;20187;-93
2020/12/08 06:33:51;;;;;;;28.75;21.52;;;2.60;99.90;;;;;;4978040;28;20197;-92
2020/12/08 06:36:19;;;;;;;28.45;19.75;;;2.80;99.90;;;;;;4982323;28;20208;-91
2020/12/08 06:38:55;;;;;;;30.50;21.10;;;2.70;99.90;;;;;;4974728;28;20194;-91
2020/12/08 06:41:27;;;;;;;24.23;19.77;;;2.70;99.90;;;;;;4978958;28;20184;-90
2020/12/08 06:43:54;;;;;;;30.35;20.95;;;2.70;99.90;;;;;;4979008;28;20202;-90
2020/12/08 06:46:20;;;;;;;26.50;19.55;;;2.70;99.90;;;;;;4978198;28;20754;-90
2020/12/08 06:48:59;;;;;;;29.73;20.75;;;2.70;99.90;;;;;;4980046;28;20218;-91
2020/12/08 06:51:26;;;;;;;24.85;21.02;;;2.70;99.90;;;;;;4981783;28;20248;-90
2020/12/08 06:53:52;;;;;;;25.42;18.13;;;3.20;99.90;;;;;;4982681;28;20197;-91
2020/12/08 06:56:28;;;;;;;22.25;18.70;;;2.80;99.90;;;;;;4972799;28;20630;-91
2020/12/08 06:58:54;;;;;;;21.83;17.08;;;2.80;99.90;;;;;;4967127;28;20197;-91
2020/12/08 07:01:21;;;;;;;24.55;18.02;;;2.80;99.90;;;;;;4959838;28;20203;-92
2020/12/08 07:03:51;;;;;;;24.10;17.55;;;2.80;99.90;;;;;;4962297;28;20220;-93
2020/12/08 07:06:22;;;;;;;22.48;17.02;;;3.20;99.90;;;;;;4965195;28;20205;-96
2020/12/08 07:08:49;;;;;;;21.38;15.20;;;2.90;99.90;;;;;;4967918;28;20667;-90
2020/12/08 07:11:19;;;;;;;21.05;14.80;;;3.00;99.90;;;;;;4971581;28;20192;-91
2020/12/08 07:13:56;;;;;;;19.63;13.90;;;3.00;99.90;;;;;;4970166;28;20194;-91
2020/12/08 07:16:24;;;;;;;17.83;14.52;;;3.10;99.90;;;;;;4976439;28;20195;-90
2020/12/08 07:18:53;;;;;;;19.20;15.18;;;3.10;99.90;;;;;;4977865;28;20221;-91
2020/12/08 07:21:20;;;;;;;14.55;11.52;;;3.40;99.90;;;;;;4976844;28;20200;-90
2020/12/08 07:23:46;;;;;;;18.17;11.35;;;3.80;99.90;;;;;;4978439;28;20218;-91
2020/12/08 07:26:14;;;;;;;20.92;13.02;;;3.10;99.90;;;;;;4978162;28;20198;-91
2020/12/08 07:28:41;;;;;;;17.05;13.05;;;3.20;99.90;;;;;;4960375;28;20279;-89
2020/12/08 07:31:20;;;;;;;14.52;11.70;;;3.20;99.90;;;;;;4964123;28;20280;-90
2020/12/08 07:33:46;;;;;;;16.90;12.35;;;3.20;99.90;;;;;;4964371;28;20281;-91
2020/12/08 07:36:25;;;;;;;14.10;10.90;;;3.30;99.90;;;;;;4958142;28;20195;-90
2020/12/08 07:38:53;;;;;;;14.45;10.85;;;3.30;99.90;;;;;;4971506;28;20186;-90
2020/12/08 07:41:21;;;;;;;20.65;15.75;;;3.30;99.90;;;;;;4981250;28;20193;-91
2020/12/08 07:43:47;;;;;;;12.77;10.48;;;3.30;99.90;;;;;;4977944;28;20197;-91
2020/12/08 07:46:21;;;;;;;9.88;7.60;;;3.30;99.90;;;;;;4977782;28;20195;-90
2020/12/08 07:48:47;;;;;;;10.85;9.35;;;3.40;99.90;;;;;;4976679;28;20233;-92
2020/12/08 07:51:13;;;;;;;10.07;8.57;;;3.40;99.90;;;;;;4976601;28;20195;-90
2020/12/08 07:53:41;;;;;;;8.82;7.35;;;3.50;99.90;;;;;;4977271;28;20194;-90
2020/12/08 07:56:07;;;;;;;8.88;7.05;;;3.60;99.90;;;;;;4977057;28;20205;-90
2020/12/08 07:58:33;;;;;;;9.20;7.78;;;3.60;99.90;;;;;;4977043;28;20187;-90
2020/12/08 08:01:00;;;;;;;11.90;9.52;;;3.70;99.90;;;;;;4976484;28;20205;-91
2020/12/08 08:03:26;;;;;;;11.90;9.40;;;3.70;99.90;;;;;;4976630;28;20277;-91
2020/12/08 08:05:52;;;;;;;13.68;9.23;;;3.70;99.90;;;;;;4976623;28;20201;-91
2020/12/08 08:08:23;;;;;;;11.60;9.93;;;3.70;99.90;;;;;;4977157;28;20210;-90
2020/12/08 08:10:50;;;;;;;13.82;9.02;;;4.00;99.90;;;;;;4977825;28;20222;-91
2020/12/08 08:13:20;;;;;;;11.48;10.02;;;3.80;99.90;;;;;;4977875;28;20638;-88
2020/12/08 08:15:47;;;;;;;11.52;9.18;;;3.80;99.90;;;;;;4977054;28;20190;-91
2020/12/08 08:18:13;;;;;;;11.88;9.63;;;3.90;99.90;;;;;;4979801;28;20220;-91
2020/12/08 08:20:39;;;;;;;12.70;9.15;;;3.80;99.90;;;;;;4979681;28;20194;-89
2020/12/08 08:23:06;;;;;;;12.45;9.23;;;3.80;99.90;;;;;;4979361;28;20830;-88
2020/12/08 08:25:32;;;;;;;11.00;9.77;;;3.90;99.90;;;;;;4979589;28;20669;-89
2020/12/08 08:27:59;;;;;;;12.48;10.23;;;3.90;99.90;;;;;;4979346;28;20241;-89
2020/12/08 08:30:25;;;;;;;13.45;9.20;;;3.90;99.90;;;;;;4979374;28;20197;-91
2020/12/08 08:32:52;;;;;;;14.13;10.13;;;4.30;99.90;;;;;;4979175;28;20194;-91
2020/12/08 08:35:20;;;;;;;10.18;8.98;;;4.00;99.90;;;;;;4982080;28;20190;-92
2020/12/08 08:37:46;;;;;;;11.63;9.05;;;4.00;99.90;;;;;;4979537;28;20203;-90
2020/12/08 08:40:13;;;;;;;12.05;9.68;;;4.20;99.90;;;;;;4979361;28;20659;-90
2020/12/08 08:42:39;;;;;;;10.32;7.88;;;4.10;99.90;;;;;;4980383;28;20190;-92
2020/12/08 08:45:06;;;;;;;10.20;8.45;;;4.20;99.90;;;;;;4980506;28;20195;-90
2020/12/08 08:47:33;;;;;;;12.02;8.15;;;4.20;99.90;;;;;;4987896;28;20210;-90
2020/12/08 08:49:59;;;;;;;14.32;9.50;;;4.30;99.90;;;;;;4989511;28;20618;-90
2020/12/08 08:52:25;;;;;;;10.10;8.40;;;4.30;99.90;;;;;;4989240;28;20214;-90
2020/12/08 08:54:52;;;;;;;11.70;8.13;;;4.30;99.90;;;;;;4987172;28;20265;-90
2020/12/08 08:57:18;;;;;;;11.32;9.18;;;4.40;99.90;;;;;;4987882;28;20201;-91
2020/12/08 08:59:45;;;;;;;8.50;6.90;;;4.90;99.90;;;;;;4988893;28;20198;-90
2020/12/08 09:02:13;;;;;;;9.93;7.53;;;4.40;99.90;;;;;;4985426;28;20203;-90
2020/12/08 09:04:39;;;;;;;9.93;7.35;;;4.50;99.90;;;;;;4984896;28;20194;-91
2020/12/08 09:07:05;;;;;;;8.73;6.57;;;4.50;99.90;;;;;;4979558;28;20202;-91
2020/12/08 09:09:33;;;;;;;8.00;6.40;;;4.50;99.90;;;;;;4979576;28;20191;-91
2020/12/08 09:11:59;;;;;;;9.05;7.03;;;4.60;99.90;;;;;;4969516;28;20191;-90
2020/12/08 09:14:27;;;;;;;8.07;5.97;;;4.50;99.90;;;;;;4980129;28;20278;-89
2020/12/08 09:16:54;;;;;;;6.70;6.00;;;4.50;99.90;;;;;;4978597;28;20197;-91
2020/12/08 09:19:22;;;;;;;8.68;6.25;;;4.50;99.90;;;;;;4979444;28;20199;-91
2020/12/08 09:21:50;;;;;;;8.35;5.60;;;4.50;99.90;;;;;;4979717;28;20218;-91
2020/12/08 09:24:17;;;;;;;7.72;6.25;;;4.60;99.90;;;;;;4984962;28;20269;-93
2020/12/08 09:26:43;;;;;;;7.05;5.20;;;4.60;99.90;;;;;;4977259;28;20205;-91
2020/12/08 09:29:09;;;;;;;8.10;6.18;;;4.70;99.90;;;;;;4978047;28;20218;-91
2020/12/08 09:31:36;;;;;;;8.38;5.70;;;4.80;99.90;;;;;;4975467;28;20195;-93
2020/12/08 09:34:03;;;;;;;8.23;5.43;;;4.90;99.90;;;;;;4962191;28;20187;-92
2020/12/08 09:36:30;;;;;;;5.53;4.68;;;5.20;99.90;;;;;;4964458;28;20192;-93
2020/12/08 09:38:59;;;;;;;6.45;5.78;;;5.20;99.90;;;;;;4976875;28;20205;-94
2020/12/08 09:41:28;;;;;;;6.78;5.03;;;5.20;99.90;;;;;;4979311;28;20184;-94
2020/12/08 09:43:55;;;;;;;8.73;5.65;;;5.30;99.90;;;;;;4984081;28;20194;-94
2020/12/08 09:46:22;;;;;;;7.32;5.20;;;5.40;99.90;;;;;;4988907;28;20180;-93
2020/12/08 09:48:53;;;;;;;5.70;4.88;;;5.50;99.90;;;;;;5000852;28;20206;-93
2020/12/08 09:51:22;;;;;;;7.22;4.95;;;5.50;99.90;;;;;;4991007;28;20207;-93
2020/12/08 09:54:07;;;;;;;12.32;5.47;;;5.50;99.90;;;;;;4972687;28;20200;-93
2020/12/08 09:56:33;;;;;;;7.95;5.55;;;5.70;99.90;;;;;;4989819;28;20194;-93
2020/12/08 09:59:02;;;;;;;6.10;4.60;;;5.60;99.90;;;;;;4975506;28;20539;-93
2020/12/08 10:01:32;;;;;;;8.38;4.90;;;5.50;99.90;;;;;;4987081;28;20281;-93
2020/12/08 10:04:06;;;;;;;8.55;5.50;;;5.50;99.90;;;;;;4988075;28;20210;-94
2020/12/08 10:06:34;;;;;;;5.97;4.63;;;5.50;99.90;;;;;;4986596;28;20182;-94
2020/12/08 10:09:02;;;;;;;5.95;4.65;;;5.50;99.90;;;;;;4988432;28;20222;-93
2020/12/08 10:11:31;;;;;;;8.43;5.28;;;5.40;99.90;;;;;;4989465;28;20198;-94
2020/12/08 10:13:58;;;;;;;6.70;5.00;;;5.50;99.90;;;;;;4971724;28;20180;-94
2020/12/08 10:16:27;;;;;;;6.00;5.32;;;5.70;99.90;;;;;;4968067;28;20192;-92
2020/12/08 10:18:55;;;;;;;6.22;5.38;;;5.60;99.90;;;;;;4965817;28;20219;-94
2020/12/08 10:21:30;;;;;;;10.23;5.25;;;5.40;99.90;;;;;;4968634;28;20195;-95
2020/12/08 10:23:57;;;;;;;6.95;5.85;;;5.60;99.90;;;;;;4968197;28;20603;-94
2020/12/08 10:26:25;;;;;;;6.13;5.07;;;5.40;99.90;;;;;;4969492;28;20231;-93
2020/12/08 10:28:59;;;;;;;8.13;5.07;;;5.50;99.90;;;;;;4967010;28;20270;-93
2020/12/08 10:31:27;;;;;;;4.85;3.65;;;5.50;99.90;;;;;;4967601;28;20220;-94
2020/12/08 11:19:54;;;;;;;6.70;5.15;;;6.40;99.90;;;;;;5815637;23;20341;-91
2020/12/08 11:27:29;;;;;;;9.27;5.07;;;6.40;99.90;;;;;;4988139;28;20210;-92
2020/12/08 11:29:56;;;;;;;5.95;4.70;;;6.50;99.90;;;;;;4987186;28;20193;-93
2020/12/08 11:32:23;;;;;;;6.80;5.57;;;6.50;99.90;;;;;;4964828;28;20280;-94
2020/12/08 11:34:51;;;;;;;10.15;6.22;;;6.60;99.90;;;;;;4969076;28;20202;-94
2020/12/08 11:37:20;;;;;;;8.27;5.90;;;6.60;99.90;;;;;;4982285;28;20194;-94
2020/12/08 11:39:56;;;;;;;6.57;5.53;;;6.80;99.90;;;;;;4965645;28;20202;-94
2020/12/08 11:42:25;;;;;;;5.60;4.38;;;6.60;99.90;;;;;;4947119;28;20199;-94
2020/12/08 11:44:54;;;;;;;7.88;4.63;;;6.80;99.90;;;;;;4972490;28;20243;-93
2020/12/08 11:47:23;;;;;;;6.75;4.50;;;6.60;99.90;;;;;;4990986;28;20250;-93
2020/12/08 11:49:50;;;;;;;6.45;5.25;;;6.80;99.90;;;;;;4971996;28;20238;-95
2020/12/08 11:52:19;;;;;;;6.90;4.97;;;6.60;99.90;;;;;;4994623;28;20254;-94
2020/12/08 11:54:48;;;;;;;6.72;5.30;;;6.60;99.90;;;;;;4991386;28;20217;-93
2020/12/08 11:57:14;;;;;;;7.07;5.43;;;6.50;99.90;;;;;;4987679;28;20194;-92
2020/12/08 11:59:41;;;;;;;6.95;6.20;;;6.50;99.90;;;;;;4968283;28;20199;-93
2020/12/08 12:02:08;;;;;;;6.90;5.18;;;6.40;99.90;;;;;;4986586;28;20207;-93
2020/12/08 12:04:36;;;;;;;5.32;4.38;;;6.30;99.90;;;;;;4986362;28;20698;-91
2020/12/08 12:07:02;;;;;;;7.00;4.85;;;6.20;99.90;;;;;;4985716;28;20217;-93
2020/12/08 12:09:32;;;;;;;5.97;4.60;;;6.20;99.90;;;;;;4985616;28;20222;-93
2020/12/08 12:11:59;;;;;;;6.82;6.05;;;6.10;99.90;;;;;;4982478;28;20191;-93
2020/12/08 12:14:26;;;;;;;6.30;5.30;;;6.20;99.90;;;;;;4982054;28;20187;-92
2020/12/08 12:16:52;;;;;;;6.80;5.45;;;6.10;99.90;;;;;;4983305;28;20627;-92
2020/12/08 12:19:18;;;;;;;8.27;5.60;;;6.10;99.90;;;;;;4984388;28;20203;-92
2020/12/08 12:21:45;;;;;;;8.50;5.80;;;6.20;99.90;;;;;;4983561;28;20634;-92
2020/12/08 12:24:12;;;;;;;9.20;6.60;;;6.20;99.90;;;;;;4982394;28;20191;-92
2020/12/08 12:26:39;;;;;;;10.80;6.22;;;6.50;99.90;;;;;;4979166;28;20254;-92
2020/12/08 12:29:05;;;;;;;6.10;5.13;;;6.30;99.90;;;;;;4983533;28;20218;-92
2020/12/08 12:31:32;;;;;;;8.00;5.93;;;6.40;99.90;;;;;;4972982;28;20195;-93
2020/12/08 12:33:58;;;;;;;7.63;5.43;;;6.40;99.90;;;;;;4987133;28;20187;-92
2020/12/08 12:36:25;;;;;;;11.30;6.10;;;6.60;99.90;;;;;;4989451;28;20199;-91
2020/12/08 12:38:51;;;;;;;9.70;7.00;;;6.70;99.90;;;;;;4982390;28;20562;-91
2020/12/08 12:41:23;;;;;;;6.93;5.30;;;6.50;99.90;;;;;;4976196;28;20191;-92
2020/12/08 12:43:51;;;;;;;10.52;7.55;;;6.70;99.90;;;;;;4980336;28;20190;-92
2020/12/08 12:46:17;;;;;;;7.30;6.22;;;6.50;99.90;;;;;;4970995;28;20188;-91
2020/12/08 12:48:45;;;;;;;9.05;6.55;;;6.70;99.90;;;;;;4962432;28;20222;-91
2020/12/08 12:51:11;;;;;;;9.32;7.18;;;6.70;99.90;;;;;;4966261;28;20202;-90
2020/12/08 12:53:38;;;;;;;11.55;7.63;;;6.70;99.90;;;;;;4961101;28;20199;-91
2020/12/08 12:56:04;;;;;;;6.63;5.65;;;6.70;99.90;;;;;;4978004;28;20191;-91
2020/12/08 12:58:32;;;;;;;10.20;7.60;;;6.70;99.90;;;;;;4979848;28;20202;-93
2020/12/08 13:00:59;;;;;;;8.55;7.22;;;6.60;99.90;;;;;;4978316;28;20624;-92
2020/12/08 13:03:26;;;;;;;12.90;8.48;;;6.70;99.90;;;;;;4962113;28;20191;-92
2020/12/08 13:05:52;;;;;;;13.50;7.63;;;7.00;99.90;;;;;;4970374;28;20210;-93
2020/12/08 13:08:18;;;;;;;9.63;7.47;;;6.80;99.90;;;;;;4982372;28;20229;-93
2020/12/08 13:10:45;;;;;;;9.50;7.40;;;7.10;99.90;;;;;;4974716;28;20187;-93
2020/12/08 13:13:13;;;;;;;8.50;7.22;;;7.20;99.90;;;;;;4980575;28;20195;-93
2020/12/08 13:15:41;;;;;;;9.55;7.47;;;7.60;99.90;;;;;;4979949;28;20631;-91
2020/12/08 13:18:13;;;;;;;9.43;7.20;;;7.70;99.90;;;;;;4971893;28;20199;-94
2020/12/08 13:20:40;;;;;;;11.20;8.70;;;7.90;99.90;;;;;;4984951;28;20203;-93
2020/12/08 13:23:12;;;;;;;9.98;8.75;;;8.00;99.90;;;;;;4976762;28;20194;-92
2020/12/08 13:25:38;;;;;;;10.30;7.88;;;8.20;99.90;;;;;;4987536;28;20264;-93
2020/12/08 13:28:05;;;;;;;10.85;7.90;;;8.20;99.90;;;;;;4987783;28;20225;-94
2020/12/08 13:30:32;;;;;;;10.60;8.57;;;8.20;99.90;;;;;;4984423;28;20191;-93
2020/12/08 13:32:58;;;;;;;13.98;10.27;;;8.10;99.90;;;;;;4985415;28;20195;-93
2020/12/08 13:35:26;;;;;;;11.82;9.18;;;7.80;99.90;;;;;;4982630;28;20802;-92